Time;durP1;ratioP1;P1;durP2;ratioP2;P2;SDS_P1;SDS_P2;PMS_P1;PMS_P2;Temp;Humidity;BMP_temperature;BMP_pressure;BME280_temperature;BME280_humidity;BME280_pressure;Samples;Min_cycle;Max_cycle;Signal;HPM_P1;HPM_P2
2021/07/21 00:02:09;;;;;;;;;;;18.40;95.30;;;;;;5094841;28;19912;-65
2021/07/21 00:04:35;;;;;;;;;;;18.20;96.30;;;;;;5076383;28;19908;-65
2021/07/21 00:07:01;;;;;;;;;;;18.00;97.30;;;;;;5074888;28;19908;-65
2021/07/21 00:09:27;;;;;;;;;;;17.80;98.40;;;;;;5076459;28;19950;-65
2021/07/21 00:14:37;;;;;;;;;;;17.60;99.90;;;;;;5096264;28;19911;-64
2021/07/21 00:17:07;;;;;;;;;;;17.50;99.90;;;;;;5103268;28;20007;-66
2021/07/21 00:22:17;;;;;;;;;;;17.40;99.90;;;;;;5094724;28;19965;-64
2021/07/21 00:24:43;;;;;;;;;;;17.30;99.90;;;;;;5094436;28;20352;-65
2021/07/21 00:27:09;;;;;;;;;;;17.40;99.90;;;;;;5094301;28;19994;-64
2021/07/21 00:29:35;;;;;;;;;;;17.30;99.90;;;;;;5076353;28;20363;-64
2021/07/21 00:32:01;;;;;;;;;;;17.40;99.90;;;;;;5094129;28;19912;-64
2021/07/21 00:34:26;;;;;;;;;;;17.40;99.90;;;;;;5094249;28;19910;-65
2021/07/21 00:36:52;;;;;;;;;;;17.40;99.90;;;;;;5094304;28;20249;-65
2021/07/21 00:39:17;;;;;;;;;;;17.30;99.90;;;;;;5094143;28;19911;-65
2021/07/21 00:41:43;;;;;;;;;;;17.30;99.90;;;;;;5076030;28;19905;-64
2021/07/21 00:44:08;;;;;;;;;;;17.30;99.90;;;;;;5076012;28;19943;-65
2021/07/21 00:46:35;;;;;;;;;;;17.30;99.90;;;;;;5094100;28;19988;-65
2021/07/21 00:49:01;;;;;;;;;;;17.30;99.90;;;;;;5094173;28;19904;-65
2021/07/21 00:51:26;;;;;;;;;;;17.20;99.90;;;;;;5093693;28;19980;-65
2021/07/21 00:53:52;;;;;;;;;;;17.20;99.90;;;;;;5093795;28;19927;-65
2021/07/21 00:56:17;;;;;;;;;;;17.20;99.90;;;;;;5075826;28;19930;-64
2021/07/21 00:58:43;;;;;;;;;;;17.30;99.90;;;;;;5094017;28;19912;-65
2021/07/21 01:01:08;;;;;;;;;;;17.30;99.90;;;;;;5093800;28;19908;-65
2021/07/21 01:03:34;;;;;;;;;;;17.30;99.90;;;;;;5093892;28;19903;-65
2021/07/21 01:06:00;;;;;;;;;;;17.40;99.90;;;;;;5093906;28;19908;-65
2021/07/21 01:08:27;;;;;;;;;;;17.40;99.90;;;;;;5075757;28;20338;-65
2021/07/21 01:11:11;;;;;;;;;;;17.40;99.90;;;;;;5094066;28;19908;-64
2021/07/21 01:13:46;;;;;;;;;;;17.40;99.90;;;;;;5094113;28;19904;-65
2021/07/21 01:16:15;;;;;;;;;;;17.40;99.90;;;;;;5076021;28;19951;-65
2021/07/21 01:18:44;;;;;;;;;;;17.40;99.90;;;;;;5093942;28;19937;-65
2021/07/21 01:21:12;;;;;;;;;;;17.50;99.90;;;;;;5096517;28;19908;-64
2021/07/21 01:23:47;;;;;;;;;;;17.40;99.90;;;;;;5098514;28;19904;-65
2021/07/21 01:26:16;;;;;;;;;;;17.40;99.90;;;;;;5098914;28;19904;-65
2021/07/21 01:28:44;;;;;;;;;;;17.40;99.90;;;;;;5079746;28;19904;-64
2021/07/21 01:31:12;;;;;;;;;;;17.30;99.90;;;;;;5080777;28;19919;-65
2021/07/21 01:33:38;;;;;;;;;;;17.20;99.90;;;;;;5099069;28;19950;-65
2021/07/21 01:36:07;;;;;;;;;;;17.00;99.90;;;;;;5098112;28;19904;-65
2021/07/21 01:38:34;;;;;;;;;;;17.00;99.90;;;;;;5097907;28;19943;-65
2021/07/21 01:41:01;;;;;;;;;;;17.00;99.90;;;;;;5097437;28;19915;-65
2021/07/21 01:43:32;;;;;;;;;;;17.00;99.90;;;;;;5079395;28;20364;-65
2021/07/21 01:45:58;;;;;;;;;;;17.00;99.90;;;;;;5097487;28;19904;-65
2021/07/21 01:48:25;;;;;;;;;;;17.00;99.90;;;;;;5079370;28;19904;-65
2021/07/21 01:50:54;;;;;;;;;;;17.00;99.90;;;;;;5097574;28;20402;-65
2021/07/21 01:53:20;;;;;;;;;;;17.00;99.90;;;;;;5097476;28;19958;-65
2021/07/21 01:55:46;;;;;;;;;;;17.00;99.90;;;;;;5097507;28;20371;-65
2021/07/21 01:58:12;;;;;;;;;;;17.00;99.90;;;;;;5097409;28;19904;-64
2021/07/21 02:00:39;;;;;;;;;;;17.00;99.90;;;;;;5078939;28;19908;-65
2021/07/21 02:03:06;;;;;;;;;;;17.00;99.90;;;;;;5079177;28;19904;-64
2021/07/21 02:05:32;;;;;;;;;;;17.00;99.90;;;;;;5097237;28;20006;-64
2021/07/21 02:07:58;;;;;;;;;;;16.90;99.90;;;;;;5097144;28;19938;-64
2021/07/21 02:10:27;;;;;;;;;;;16.90;99.90;;;;;;5097135;28;19904;-64
2021/07/21 02:12:56;;;;;;;;;;;16.90;99.90;;;;;;5097621;28;19903;-64
2021/07/21 02:15:23;;;;;;;;;;;16.80;99.90;;;;;;5096990;28;19939;-64
2021/07/21 02:17:49;;;;;;;;;;;16.80;99.90;;;;;;5097130;28;19908;-64
2021/07/21 02:20:14;;;;;;;;;;;16.70;99.90;;;;;;5096901;28;19912;-64
2021/07/21 02:22:41;;;;;;;;;;;16.60;99.90;;;;;;5096767;28;19904;-64
2021/07/21 02:25:08;;;;;;;;;;;16.60;99.90;;;;;;5078528;28;19911;-64
2021/07/21 02:27:34;;;;;;;;;;;16.50;99.90;;;;;;5097211;28;19904;-64
2021/07/21 02:30:00;;;;;;;;;;;16.50;99.90;;;;;;5096554;28;19904;-64
2021/07/21 02:32:30;;;;;;;;;;;16.50;99.90;;;;;;5096508;28;19911;-63
2021/07/21 02:34:56;;;;;;;;;;;16.40;99.90;;;;;;5096618;28;19908;-63
2021/07/21 02:37:22;;;;;;;;;;;16.30;99.90;;;;;;5096421;28;19994;-64
2021/07/21 02:39:48;;;;;;;;;;;16.30;99.90;;;;;;5096630;28;20360;-64
2021/07/21 02:42:14;;;;;;;;;;;16.30;99.90;;;;;;5098056;28;19908;-64
2021/07/21 02:44:44;;;;;;;;;;;16.20;99.90;;;;;;5099136;28;19908;-63
2021/07/21 02:47:11;;;;;;;;;;;16.20;99.90;;;;;;5096759;28;20358;-63
2021/07/21 02:49:36;;;;;;;;;;;16.20;99.90;;;;;;5096406;28;19911;-63
2021/07/21 02:52:24;;;;;;;;;;;16.20;99.90;;;;;;5096153;28;19916;-63
2021/07/21 02:55:02;;;;;;;;;;;16.10;99.90;;;;;;5096152;28;19904;-64
2021/07/21 02:57:46;;;;;;;;;;;16.10;99.90;;;;;;5096071;28;19904;-64
2021/07/21 03:00:13;;;;;;;;;;;16.10;99.90;;;;;;5096239;28;19911;-64
2021/07/21 03:02:40;;;;;;;;;;;16.00;99.90;;;;;;5077842;28;20018;-65
2021/07/21 03:05:07;;;;;;;;;;;16.10;99.90;;;;;;5096118;28;19918;-64
2021/07/21 03:07:35;;;;;;;;;;;16.00;99.90;;;;;;5077691;28;19911;-64
2021/07/21 03:10:01;;;;;;;;;;;16.00;99.90;;;;;;5077700;28;20338;-64
2021/07/21 03:12:28;;;;;;;;;;;15.90;99.90;;;;;;5095784;28;19904;-64
2021/07/21 03:14:54;;;;;;;;;;;15.80;99.90;;;;;;5095757;28;20435;-64
2021/07/21 03:17:21;;;;;;;;;;;15.80;99.90;;;;;;5096185;28;19904;-64
2021/07/21 03:19:48;;;;;;;;;;;15.80;99.90;;;;;;5096311;28;20345;-64
2021/07/21 03:22:15;;;;;;;;;;;15.70;99.90;;;;;;5077230;28;19916;-64
2021/07/21 03:24:41;;;;;;;;;;;15.70;99.90;;;;;;5095594;28;19937;-64
2021/07/21 03:27:07;;;;;;;;;;;15.60;99.90;;;;;;5077475;28;19904;-64
2021/07/21 03:29:33;;;;;;;;;;;15.50;99.90;;;;;;5095462;28;19952;-64
2021/07/21 03:31:58;;;;;;;;;;;15.30;99.90;;;;;;5077400;28;20322;-64
2021/07/21 03:34:24;;;;;;;;;;;15.10;99.90;;;;;;5095765;28;19982;-64
2021/07/21 03:36:52;;;;;;;;;;;15.00;99.90;;;;;;5095524;28;19983;-64
2021/07/21 03:39:18;;;;;;;;;;;15.00;99.90;;;;;;5078766;28;19959;-64
2021/07/21 03:41:44;;;;;;;;;;;14.90;99.90;;;;;;5096321;28;19908;-64
2021/07/21 03:44:11;;;;;;;;;;;14.90;99.90;;;;;;5078304;28;19918;-65
2021/07/21 03:46:38;;;;;;;;;;;14.90;99.90;;;;;;5077165;28;19904;-64
2021/07/21 03:49:04;;;;;;;;;;;14.90;99.90;;;;;;5095169;28;20298;-63
2021/07/21 03:51:30;;;;;;;;;;;14.80;99.90;;;;;;5094972;28;19927;-65
2021/07/21 03:53:56;;;;;;;;;;;14.80;99.90;;;;;;5095634;28;19947;-64
2021/07/21 03:56:23;;;;;;;;;;;14.80;99.90;;;;;;5095228;28;19911;-64
2021/07/21 03:58:48;;;;;;;;;;;14.80;99.90;;;;;;5095166;28;19908;-65
2021/07/21 04:01:15;;;;;;;;;;;14.80;99.90;;;;;;5094592;28;19953;-65
2021/07/21 04:03:41;;;;;;;;;;;14.70;99.90;;;;;;5077340;28;19903;-64
2021/07/21 04:06:07;;;;;;;;;;;14.70;99.90;;;;;;5094906;28;20389;-65
2021/07/21 04:08:33;;;;;;;;;;;14.80;99.90;;;;;;5094895;28;19989;-64
2021/07/21 04:10:59;;;;;;;;;;;14.80;99.90;;;;;;5076535;28;19904;-64
2021/07/21 04:13:25;;;;;;;;;;;14.80;99.90;;;;;;5094783;28;20271;-65
2021/07/21 04:15:50;;;;;;;;;;;14.80;99.90;;;;;;5094633;28;19908;-65
2021/07/21 04:18:19;;;;;;;;;;;14.80;99.90;;;;;;5094667;28;20198;-64
2021/07/21 04:20:46;;;;;;;;;;;14.80;99.90;;;;;;5075979;28;19931;-64
2021/07/21 04:23:11;;;;;;;;;;;14.80;99.90;;;;;;5095409;28;19908;-64
2021/07/21 04:25:37;;;;;;;;;;;14.70;99.90;;;;;;5094518;28;20364;-64
2021/07/21 04:28:03;;;;;;;;;;;14.70;99.90;;;;;;5094668;28;19936;-64
2021/07/21 04:30:30;;;;;;;;;;;14.70;99.90;;;;;;5095835;28;19949;-64
2021/07/21 04:32:56;;;;;;;;;;;14.70;99.90;;;;;;5077296;28;19904;-64
2021/07/21 04:35:22;;;;;;;;;;;14.70;99.90;;;;;;5095348;28;20045;-64
2021/07/21 04:37:47;;;;;;;;;;;14.70;99.90;;;;;;5095539;28;19904;-64
2021/07/21 04:40:13;;;;;;;;;;;14.70;99.90;;;;;;5094320;28;19953;-65
2021/07/21 04:42:40;;;;;;;;;;;14.60;99.90;;;;;;5075993;28;19923;-64
2021/07/21 04:45:06;;;;;;;;;;;14.70;99.90;;;;;;5094250;28;19904;-64
2021/07/21 04:47:33;;;;;;;;;;;14.70;99.90;;;;;;5094323;28;19904;-64
2021/07/21 04:49:59;;;;;;;;;;;14.70;99.90;;;;;;5093835;28;19904;-64
2021/07/21 04:52:25;;;;;;;;;;;14.70;99.90;;;;;;5075591;28;19965;-63
2021/07/21 04:54:51;;;;;;;;;;;14.70;99.90;;;;;;5093383;28;19915;-64
2021/07/21 04:57:18;;;;;;;;;;;14.70;99.90;;;;;;5094732;28;19904;-63
2021/07/21 04:59:44;;;;;;;;;;;14.70;99.90;;;;;;5094349;28;20417;-63
2021/07/21 05:02:09;;;;;;;;;;;14.70;99.90;;;;;;5094004;28;19912;-63
2021/07/21 05:04:35;;;;;;;;;;;14.60;99.90;;;;;;5093839;28;19904;-63
2021/07/21 05:07:01;;;;;;;;;;;14.70;99.90;;;;;;5093770;28;20383;-63
2021/07/21 05:09:27;;;;;;;;;;;14.80;99.90;;;;;;5076527;28;19904;-62
2021/07/21 05:11:52;;;;;;;;;;;14.90;99.90;;;;;;5097059;28;20289;-61
2021/07/21 05:14:18;;;;;;;;;;;15.00;99.90;;;;;;5075719;28;19943;-62
2021/07/21 05:16:43;;;;;;;;;;;15.10;99.90;;;;;;5093715;28;19908;-59
2021/07/21 05:19:11;;;;;;;;;;;15.10;99.90;;;;;;5093761;28;19908;-60
2021/07/21 05:21:36;;;;;;;;;;;15.20;99.90;;;;;;5093690;28;19914;-62
2021/07/21 05:24:02;;;;;;;;;;;15.20;99.90;;;;;;5075363;28;20002;-60
2021/07/21 05:26:28;;;;;;;;;;;15.20;99.90;;;;;;5093628;28;19926;-62
2021/07/21 05:28:53;;;;;;;;;;;15.30;99.90;;;;;;5092577;28;20338;-61
2021/07/21 05:31:18;;;;;;;;;;;15.40;99.90;;;;;;5092865;28;20413;-63
2021/07/21 05:33:44;;;;;;;;;;;15.50;99.90;;;;;;5093564;28;19904;-64
2021/07/21 05:36:10;;;;;;;;;;;15.60;99.90;;;;;;5094095;28;19904;-64
2021/07/21 05:38:36;;;;;;;;;;;15.70;99.90;;;;;;5093507;28;19904;-62
2021/07/21 05:41:01;;;;;;;;;;;15.70;99.90;;;;;;5093536;28;20356;-64
2021/07/21 05:43:29;;;;;;;;;;;15.90;99.90;;;;;;5093638;28;20387;-64
2021/07/21 05:45:55;;;;;;;;;;;16.00;99.90;;;;;;5075388;28;19911;-63
2021/07/21 05:48:20;;;;;;;;;;;16.00;99.90;;;;;;5093820;28;19904;-62
2021/07/21 05:50:46;;;;;;;;;;;16.10;99.90;;;;;;5114089;22;19997;-67
2021/07/21 05:53:11;;;;;;;;;;;16.10;99.90;;;;;;5094275;28;19912;-66
2021/07/21 05:55:37;;;;;;;;;;;16.20;99.90;;;;;;5075118;28;20396;-66
2021/07/21 05:58:02;;;;;;;;;;;16.30;99.90;;;;;;5093523;28;20283;-67
2021/07/21 06:00:28;;;;;;;;;;;16.30;99.90;;;;;;5074907;28;20253;-67
2021/07/21 06:02:53;;;;;;;;;;;16.40;99.90;;;;;;5093033;28;19967;-66
2021/07/21 06:05:19;;;;;;;;;;;16.50;99.90;;;;;;5093133;28;20002;-67
2021/07/21 06:07:45;;;;;;;;;;;16.50;99.90;;;;;;5096241;28;19958;-67
2021/07/21 06:10:10;;;;;;;;;;;16.60;99.90;;;;;;5097755;28;19915;-67
2021/07/21 06:12:36;;;;;;;;;;;16.70;99.90;;;;;;5097325;28;20006;-68
2021/07/21 06:15:02;;;;;;;;;;;16.80;99.90;;;;;;5097772;28;19930;-68
2021/07/21 06:17:28;;;;;;;;;;;16.90;99.90;;;;;;5098129;28;19907;-67
2021/07/21 06:19:53;;;;;;;;;;;17.00;99.90;;;;;;5079890;28;19904;-67
2021/07/21 06:22:19;;;;;;;;;;;17.00;99.90;;;;;;5097317;28;19912;-67
2021/07/21 06:24:45;;;;;;;;;;;17.10;99.90;;;;;;5078673;28;19904;-67
2021/07/21 06:27:11;;;;;;;;;;;17.20;99.90;;;;;;5078845;28;19903;-67
2021/07/21 06:29:36;;;;;;;;;;;17.40;99.90;;;;;;5096684;28;20275;-67
2021/07/21 06:32:02;;;;;;;;;;;17.40;99.90;;;;;;5078239;28;19908;-67
2021/07/21 06:34:27;;;;;;;;;;;17.50;99.90;;;;;;5096934;28;19904;-67
2021/07/21 06:36:53;;;;;;;;;;;17.50;99.90;;;;;;5096628;28;19926;-68
2021/07/21 06:39:19;;;;;;;;;;;17.60;99.90;;;;;;5096934;28;20372;-67
2021/07/21 06:41:45;;;;;;;;;;;17.70;99.90;;;;;;5098263;28;20292;-67
2021/07/21 06:44:10;;;;;;;;;;;17.70;99.90;;;;;;5097456;28;20356;-68
2021/07/21 06:46:35;;;;;;;;;;;17.80;99.90;;;;;;5097361;28;19953;-67
2021/07/21 06:49:01;;;;;;;;;;;17.80;99.90;;;;;;5097273;28;19926;-67
2021/07/21 06:51:27;;;;;;;;;;;17.90;99.90;;;;;;5098693;28;19918;-66
2021/07/21 06:53:52;;;;;;;;;;;18.00;99.90;;;;;;5079776;28;19915;-67
2021/07/21 06:56:18;;;;;;;;;;;18.10;99.90;;;;;;5097610;28;20315;-67
2021/07/21 06:58:43;;;;;;;;;;;18.30;99.90;;;;;;5099544;28;19910;-68
2021/07/21 07:01:09;;;;;;;;;;;18.40;99.90;;;;;;5101491;28;19912;-67
2021/07/21 07:03:35;;;;;;;;;;;18.40;99.90;;;;;;5082864;28;20383;-67
2021/07/21 07:06:01;;;;;;;;;;;18.50;99.90;;;;;;5100993;28;19990;-67
2021/07/21 07:08:26;;;;;;;;;;;18.60;99.90;;;;;;5084167;28;19918;-67
2021/07/21 07:10:52;;;;;;;;;;;18.70;99.90;;;;;;5100591;28;19908;-67
2021/07/21 07:13:17;;;;;;;;;;;18.90;99.90;;;;;;5097083;28;19908;-67
2021/07/21 07:15:43;;;;;;;;;;;19.00;99.90;;;;;;5096609;28;19927;-68
2021/07/21 07:18:14;;;;;;;;;;;19.10;99.90;;;;;;5077932;28;19907;-66
2021/07/21 07:20:43;;;;;;;;;;;19.20;99.90;;;;;;5096352;28;19915;-67
2021/07/21 07:23:09;;;;;;;;;;;19.30;99.90;;;;;;5078254;28;20459;-67
2021/07/21 07:25:35;;;;;;;;;;;19.50;99.90;;;;;;5096827;28;19943;-67
2021/07/21 07:28:01;;;;;;;;;;;19.50;99.90;;;;;;5096859;28;19904;-68
2021/07/21 07:30:26;;;;;;;;;;;19.50;99.90;;;;;;5077594;28;20232;-67
2021/07/21 07:32:52;;;;;;;;;;;19.60;99.90;;;;;;5096066;28;19912;-67
2021/07/21 07:35:17;;;;;;;;;;;19.70;99.90;;;;;;5095248;28;19903;-67
2021/07/21 07:37:43;;;;;;;;;;;19.70;99.90;;;;;;5095281;28;20229;-67
2021/07/21 07:40:09;;;;;;;;;;;19.80;99.90;;;;;;5076815;28;19954;-67
2021/07/21 07:42:35;;;;;;;;;;;19.90;99.90;;;;;;5095039;28;19915;-67
2021/07/21 07:45:01;;;;;;;;;;;20.00;99.90;;;;;;5095004;28;20351;-67
2021/07/21 07:47:27;;;;;;;;;;;20.20;99.90;;;;;;5094675;28;19911;-66
2021/07/21 07:49:52;;;;;;;;;;;20.30;99.90;;;;;;5095191;28;20287;-67
2021/07/21 07:52:18;;;;;;;;;;;20.30;99.90;;;;;;5076492;28;19911;-67
2021/07/21 07:54:43;;;;;;;;;;;20.40;99.90;;;;;;5094658;28;19904;-67
2021/07/21 07:57:09;;;;;;;;;;;20.50;99.90;;;;;;5076490;28;19914;-68
2021/07/21 07:59:36;;;;;;;;;;;20.60;99.90;;;;;;5094580;28;19954;-67
2021/07/21 08:02:01;;;;;;;;;;;20.60;99.90;;;;;;5094386;28;19908;-67
2021/07/21 08:04:27;;;;;;;;;;;20.80;99.90;;;;;;5094538;28;19981;-68
2021/07/21 08:06:53;;;;;;;;;;;20.80;99.90;;;;;;5094410;28;19957;-67
2021/07/21 08:09:18;;;;;;;;;;;21.00;99.90;;;;;;5094595;28;19991;-67
2021/07/21 08:11:48;;;;;;;;;;;21.10;99.90;;;;;;5094097;28;19912;-68
2021/07/21 08:14:18;;;;;;;;;;;21.30;99.90;;;;;;5076099;28;19955;-67
2021/07/21 08:16:44;;;;;;;;;;;21.60;99.90;;;;;;5075874;28;20378;-66
2021/07/21 08:19:10;;;;;;;;;;;22.60;98.90;;;;;;5075848;28;19908;-67
2021/07/21 08:21:35;;;;;;;;;;;24.20;96.50;;;;;;5093968;28;20050;-68
2021/07/21 08:24:01;;;;;;;;;;;25.80;93.80;;;;;;5076027;28;19911;-68
2021/07/21 08:26:26;;;;;;;;;;;27.50;90.80;;;;;;5094184;28;19937;-68
2021/07/21 08:28:52;;;;;;;;;;;28.50;86.20;;;;;;5093618;28;19908;-68
2021/07/21 08:31:17;;;;;;;;;;;29.30;83.10;;;;;;5093882;28;19904;-69
2021/07/21 08:33:44;;;;;;;;;;;30.30;79.80;;;;;;5093991;28;20252;-68
2021/07/21 08:36:10;;;;;;;;;;;32.10;74.40;;;;;;5094210;28;19915;-68
2021/07/21 08:38:36;;;;;;;;;;;31.30;72.10;;;;;;5094143;28;19911;-68
2021/07/21 08:41:02;;;;;;;;;;;31.30;71.20;;;;;;5093670;28;19908;-68
2021/07/21 08:43:28;;;;;;;;;;;32.20;69.80;;;;;;5093806;28;19911;-67
2021/07/21 08:45:54;;;;;;;;;;;32.70;68.60;;;;;;5094240;28;19904;-68
2021/07/21 08:48:19;;;;;;;;;;;33.80;64.70;;;;;;5093704;28;19904;-67
2021/07/21 08:50:45;;;;;;;;;;;34.50;62.50;;;;;;5093843;28;19915;-69
2021/07/21 08:53:11;;;;;;;;;;;34.20;61.60;;;;;;5093852;28;19908;-68
2021/07/21 08:55:36;;;;;;;;;;;34.70;60.10;;;;;;5075721;28;19911;-68
2021/07/21 08:58:02;;;;;;;;;;;34.70;59.40;;;;;;5093719;28;19908;-68
2021/07/21 09:00:28;;;;;;;;;;;34.40;58.90;;;;;;5093619;28;20012;-68
2021/07/21 09:02:54;;;;;;;;;;;34.20;59.30;;;;;;5093549;28;19911;-68
2021/07/21 09:05:19;;;;;;;;;;;33.60;60.60;;;;;;5093572;28;20417;-68
2021/07/21 09:07:45;;;;;;;;;;;34.90;58.90;;;;;;5075106;28;19962;-69
2021/07/21 09:10:12;;;;;;;;;;;35.40;57.60;;;;;;5075285;28;19911;-68
2021/07/21 09:12:42;;;;;;;;;;;36.00;56.80;;;;;;5093292;28;19904;-69
2021/07/21 09:15:09;;;;;;;;;;;36.90;54.80;;;;;;5093483;28;20007;-68
2021/07/21 09:17:35;;;;;;;;;;;37.00;53.50;;;;;;5093836;28;19904;-68
2021/07/21 09:20:01;;;;;;;;;;;36.10;54.60;;;;;;5093385;28;19904;-68
2021/07/21 09:22:27;;;;;;;;;;;36.90;53.70;;;;;;5093058;28;19908;-68
2021/07/21 09:25:08;;;;;;;;;;;36.50;53.50;;;;;;5093573;28;19908;-68
2021/07/21 09:27:34;;;;;;;;;;;35.90;53.70;;;;;;5093138;28;19952;-68
2021/07/21 09:30:00;;;;;;;;;;;36.10;54.10;;;;;;5093564;28;20006;-68
2021/07/21 09:32:25;;;;;;;;;;;37.10;52.60;;;;;;5093407;28;19911;-69
2021/07/21 09:34:54;;;;;;;;;;;36.70;52.40;;;;;;5093416;28;19908;-68
2021/07/21 09:37:20;;;;;;;;;;;35.00;53.60;;;;;;5094237;28;19904;-68
2021/07/21 09:39:50;;;;;;;;;;;35.70;53.00;;;;;;5093737;28;19904;-68
2021/07/21 09:42:16;;;;;;;;;;;35.50;52.80;;;;;;5095950;28;19997;-68
2021/07/21 09:44:43;;;;;;;;;;;36.80;51.70;;;;;;5079377;28;20287;-68
2021/07/21 09:47:11;;;;;;;;;;;37.10;51.10;;;;;;5098248;28;19904;-68
2021/07/21 09:49:37;;;;;;;;;;;34.80;52.70;;;;;;5079694;28;20006;-68
2021/07/21 09:52:13;;;;;;;;;;;33.90;53.40;;;;;;5097924;28;20003;-68
2021/07/21 09:54:39;;;;;;;;;;;34.30;53.70;;;;;;5097089;28;20346;-68
2021/07/21 09:57:13;;;;;;;;;;;34.00;53.30;;;;;;5078840;28;19958;-69
2021/07/21 09:59:39;;;;;;;;;;;33.10;54.70;;;;;;5097717;28;19904;-67
2021/07/21 10:02:20;;;;;;;;;;;34.10;55.30;;;;;;5097307;28;20276;-69
2021/07/21 10:04:47;;;;;;;;;;;35.30;53.10;;;;;;5079238;28;19918;-68
2021/07/21 10:09:38;;;;;;;;;;;34.90;52.10;;;;;;5097207;28;19959;-68
2021/07/21 10:12:12;;;;;;;;;;;34.90;52.50;;;;;;5096715;28;19915;-68
2021/07/21 10:14:38;;;;;;;;;;;35.80;51.80;;;;;;5097087;28;19923;-67
2021/07/21 10:17:03;;;;;;;;;;;36.90;50.40;;;;;;5078668;28;19939;-68
2021/07/21 10:19:29;;;;;;;;;;;37.40;49.40;;;;;;5096681;28;20010;-69
2021/07/21 10:21:57;;;;;;;;;;;37.70;48.90;;;;;;5096490;28;20331;-68
2021/07/21 10:24:23;;;;;;;;;;;38.40;48.30;;;;;;5096642;28;20360;-68
2021/07/21 10:26:49;;;;;;;;;;;39.00;47.50;;;;;;5096820;28;20340;-68
2021/07/21 10:29:15;;;;;;;;;;;38.30;47.60;;;;;;5078423;28;19956;-68
2021/07/21 10:31:41;;;;;;;;;;;37.80;48.10;;;;;;5096103;28;19908;-68
2021/07/21 10:34:07;;;;;;;;;;;36.10;50.10;;;;;;5078307;28;19905;-67
2021/07/21 10:36:34;;;;;;;;;;;36.80;49.20;;;;;;5096291;28;19908;-69
2021/07/21 10:39:22;;;;;;;;;;;36.30;49.50;;;;;;5096644;28;19930;-68
2021/07/21 10:41:48;;;;;;;;;;;35.00;50.90;;;;;;5083270;28;19904;-69
2021/07/21 10:44:15;;;;;;;;;;;34.40;50.80;;;;;;5096115;28;19918;-67
2021/07/21 10:46:44;;;;;;;;;;;34.00;50.90;;;;;;5077812;28;19923;-68
2021/07/21 10:49:24;;;;;;;;;;;34.70;51.80;;;;;;5096166;28;19912;-67
2021/07/21 10:54:52;;;;;;;;;;;34.30;51.40;;;;;;5094742;28;19904;-67
2021/07/21 11:00:22;;;;;;;;;;;33.60;52.70;;;;;;5095789;28;20374;-68
2021/07/21 11:02:51;;;;;;;;;;;34.50;51.60;;;;;;5095659;28;20414;-67
2021/07/21 11:05:33;;;;;;;;;;;33.80;52.50;;;;;;5077269;28;19904;-67
2021/07/21 11:07:59;;;;;;;;;;;34.30;51.90;;;;;;5095390;28;19943;-67
2021/07/21 11:10:41;;;;;;;;;;;34.20;51.90;;;;;;5095413;28;20387;-68
2021/07/21 11:13:08;;;;;;;;;;;35.20;51.30;;;;;;5095700;28;19930;-68
2021/07/21 11:15:40;;;;;;;;;;;33.20;52.50;;;;;;5095912;28;20360;-67
2021/07/21 11:18:21;;;;;;;;;;;31.40;54.60;;;;;;5077647;28;19904;-68
2021/07/21 11:20:59;;;;;;;;;;;30.80;55.60;;;;;;5077239;28;19904;-68
2021/07/21 11:23:40;;;;;;;;;;;30.20;55.90;;;;;;5077306;28;19904;-67
2021/07/21 11:26:24;;;;;;;;;;;30.10;56.70;;;;;;5095713;28;19911;-67
2021/07/21 11:28:49;;;;;;;;;;;30.00;57.30;;;;;;5077090;28;19953;-68
2021/07/21 11:31:15;;;;;;;;;;;29.80;57.30;;;;;;5094874;28;19907;-68
2021/07/21 11:33:40;;;;;;;;;;;29.50;57.80;;;;;;5095366;28;19904;-68
2021/07/21 11:36:06;;;;;;;;;;;29.10;58.30;;;;;;5095359;28;19911;-68
2021/07/21 11:38:45;;;;;;;;;;;29.00;59.20;;;;;;5077219;28;19904;-67
2021/07/21 11:41:10;;;;;;;;;;;28.80;59.60;;;;;;5095008;28;19904;-67
2021/07/21 11:43:36;;;;;;;;;;;28.00;60.30;;;;;;5095161;28;20279;-68
2021/07/21 11:46:03;;;;;;;;;;;27.60;61.80;;;;;;5077229;28;19904;-68
2021/07/21 11:48:31;;;;;;;;;;;27.00;62.70;;;;;;5095442;28;19904;-67
2021/07/21 11:50:56;;;;;;;;;;;27.20;63.50;;;;;;5095685;28;19912;-71
2021/07/21 11:53:22;;;;;;;;;;;27.30;62.80;;;;;;5095513;28;19908;-71
2021/07/21 11:55:47;;;;;;;;;;;27.40;62.90;;;;;;5095463;28;19904;-71
2021/07/21 11:58:14;;;;;;;;;;;27.10;63.40;;;;;;5077112;28;20070;-70
2021/07/21 12:00:40;;;;;;;;;;;27.00;63.30;;;;;;5095250;28;20352;-71
2021/07/21 12:03:08;;;;;;;;;;;27.00;64.00;;;;;;5077168;28;20018;-71
2021/07/21 12:05:34;;;;;;;;;;;27.00;64.20;;;;;;5094681;28;19904;-71
2021/07/21 12:08:05;;;;;;;;;;;26.80;63.70;;;;;;5076584;28;20237;-71
2021/07/21 12:10:34;;;;;;;;;;;26.60;64.40;;;;;;5094780;28;20338;-70
2021/07/21 12:13:07;;;;;;;;;;;26.50;64.60;;;;;;5076605;28;19954;-70
2021/07/21 12:15:33;;;;;;;;;;;26.40;64.50;;;;;;5094535;28;19907;-71
2021/07/21 12:18:06;;;;;;;;;;;26.30;64.80;;;;;;5076460;28;20339;-71
2021/07/21 12:20:32;;;;;;;;;;;26.00;65.20;;;;;;5094766;28;19911;-71
2021/07/21 12:22:57;;;;;;;;;;;25.90;65.70;;;;;;5094919;28;20007;-70
2021/07/21 12:25:23;;;;;;;;;;;25.90;65.70;;;;;;5076562;28;19908;-71
2021/07/21 12:27:49;;;;;;;;;;;25.90;66.10;;;;;;5094698;28;19922;-71
2021/07/21 12:30:14;;;;;;;;;;;26.00;65.90;;;;;;5094721;28;20336;-71
2021/07/21 12:32:41;;;;;;;;;;;26.10;65.90;;;;;;5094640;28;19908;-72
2021/07/21 12:35:07;;;;;;;;;;;26.00;65.40;;;;;;5076756;28;19904;-71
2021/07/21 12:37:37;;;;;;;;;;;25.70;66.20;;;;;;5095405;28;19927;-71
2021/07/21 12:40:09;;;;;;;;;;;25.80;66.40;;;;;;5094750;28;19915;-72
2021/07/21 12:42:34;;;;;;;;;;;25.70;66.10;;;;;;5075906;28;20422;-71
2021/07/21 12:45:02;;;;;;;;;;;25.90;66.70;;;;;;5094195;28;19908;-71
2021/07/21 12:47:32;;;;;;;;;;;25.90;66.50;;;;;;5094398;28;19923;-72
2021/07/21 12:49:58;;;;;;;;;;;25.90;66.30;;;;;;5075985;28;20009;-71
2021/07/21 12:52:28;;;;;;;;;;;25.90;66.70;;;;;;5094056;28;19934;-71
2021/07/21 12:54:55;;;;;;;;;;;25.90;66.60;;;;;;5094292;28;19908;-71
2021/07/21 12:57:39;;;;;;;;;;;26.00;66.90;;;;;;5093863;28;19904;-71
2021/07/21 13:00:06;;;;;;;;;;;26.10;66.60;;;;;;5093873;28;19907;-71
2021/07/21 13:02:32;;;;;;;;;;;26.20;65.90;;;;;;5093257;28;19962;-71
2021/07/21 13:04:58;;;;;;;;;;;26.30;66.40;;;;;;5075350;28;19915;-71
2021/07/21 13:07:24;;;;;;;;;;;26.40;66.70;;;;;;5093815;28;20284;-71
2021/07/21 13:09:50;;;;;;;;;;;26.50;68.00;;;;;;5075317;28;19904;-71
2021/07/21 13:12:16;;;;;;;;;;;26.50;67.50;;;;;;5093732;28;19908;-71
2021/07/21 13:14:42;;;;;;;;;;;26.60;68.00;;;;;;5093373;28;19911;-69
2021/07/21 13:17:09;;;;;;;;;;;26.70;67.00;;;;;;5074561;28;20361;-70
2021/07/21 13:19:35;;;;;;;;;;;26.80;66.60;;;;;;5094154;28;20006;-71
2021/07/21 13:22:00;;;;;;;;;;;26.90;66.80;;;;;;5093803;28;19904;-72
2021/07/21 13:24:29;;;;;;;;;;;27.10;66.40;;;;;;5093809;28;19930;-71
2021/07/21 13:26:55;;;;;;;;;;;27.00;66.50;;;;;;5093603;28;19969;-71
2021/07/21 13:29:21;;;;;;;;;;;27.00;66.50;;;;;;5093978;28;20351;-71
2021/07/21 13:31:47;;;;;;;;;;;27.00;66.40;;;;;;5075798;28;19908;-71
2021/07/21 13:34:28;;;;;;;;;;;26.90;66.20;;;;;;5075258;28;19999;-71
2021/07/21 13:36:54;;;;;;;;;;;27.00;66.30;;;;;;5093627;28;19907;-71
2021/07/21 13:39:22;;;;;;;;;;;27.00;65.70;;;;;;5093483;28;20007;-70
2021/07/21 13:41:55;;;;;;;;;;;26.90;65.90;;;;;;5093506;28;19908;-71
2021/07/21 13:44:28;;;;;;;;;;;26.80;65.90;;;;;;5093404;28;19904;-71
2021/07/21 13:46:55;;;;;;;;;;;26.80;66.20;;;;;;5093389;28;19915;-71
2021/07/21 13:49:25;;;;;;;;;;;27.10;65.60;;;;;;5093275;28;19942;-70
2021/07/21 13:51:54;;;;;;;;;;;27.10;65.60;;;;;;5074847;28;19916;-71
2021/07/21 13:54:21;;;;;;;;;;;27.10;65.00;;;;;;5093421;28;19904;-72
2021/07/21 13:56:49;;;;;;;;;;;27.10;64.80;;;;;;5093479;28;20350;-71
2021/07/21 13:59:14;;;;;;;;;;;27.20;64.80;;;;;;5075272;28;19917;-71
2021/07/21 14:01:40;;;;;;;;;;;27.30;64.80;;;;;;5075767;28;19971;-71
2021/07/21 14:04:05;;;;;;;;;;;27.30;64.70;;;;;;5075972;28;20010;-70
2021/07/21 14:06:31;;;;;;;;;;;27.40;64.30;;;;;;5093519;28;19904;-72
2021/07/21 14:08:57;;;;;;;;;;;27.50;64.30;;;;;;5075142;28;19979;-71
2021/07/21 14:11:23;;;;;;;;;;;27.40;64.40;;;;;;5075029;28;19958;-71
2021/07/21 14:13:49;;;;;;;;;;;27.40;64.40;;;;;;5075514;28;19904;-70
2021/07/21 14:16:14;;;;;;;;;;;27.30;64.40;;;;;;5092942;28;19904;-70
2021/07/21 14:18:40;;;;;;;;;;;27.20;64.80;;;;;;5093088;28;19904;-71
2021/07/21 14:21:06;;;;;;;;;;;27.20;64.70;;;;;;5093666;28;19957;-70
2021/07/21 14:23:32;;;;;;;;;;;27.30;63.50;;;;;;5075348;28;19911;-70
2021/07/21 14:25:57;;;;;;;;;;;27.30;63.70;;;;;;5075403;28;20003;-70
2021/07/21 14:28:23;;;;;;;;;;;27.30;63.70;;;;;;5095773;28;19963;-70
2021/07/21 14:30:48;;;;;;;;;;;27.40;63.10;;;;;;5096756;28;19911;-70